Aérodrome :
LOGIN :

S'inscrire | Disclaimer

   EN    FR    IT 

 










Légende :    VFR   VFR Marginal   IFR   IFR Intensif   IFR Très Intensif
Visi : 
Plafond : 
>= 8 km
>= 3000ft
5 à 8 km
1000 à 3000 ft
1500m à 5 km
500 à 1000 ft
800 à 1500m
200 à 500 ft
< 800m
< 200 ft
Symboles :   Orages  Brouillard  Fortes neiges  Fortes précipitations  Vent > 20 kt
SIGMETs :   Divers  Orages  Givrage  Turbulence  Onde Orograph.  Cendres Volcan.







- Altitude de l'aérodrome : 396 ft
- Voir les cartes d'approche


LFOZ - Orléans St Denis

DERNIER METAR :
  • 170830Z AUTO 04006KT 350V100 8000 BKN013 19/15 Q1022

METARs EXPIRÉS :
  • 170800Z AUTO 04007KT 360V070 8000 NSC 18/15 Q1022
  • 170730Z AUTO 03006KT 360V060 8000 FEW028 16/15 Q1021
  • 170700Z AUTO 02005KT 6000 BKN027 15/14 Q1021
  • 170630Z AUTO 02003KT 5000 BR BKN025 15/14 Q1021
  • 170600Z AUTO 01002KT 3800 BR NSC 14/13 Q1021

TAF N/A
Pas de NOTAMs connus pour ce terrain.



MET'MAP, la Météo Aéronautique d'un coup d'oeil ! - Copyright ORBIFLY Décembre 2007 - Disclaimer

ORBIFLY MET'MAP TEAM :

Programmation & Développement : Alexandra Zaïnal
Conception & Développement : Baudouin d'Aumeries
Co-Programmation & Développement : Marc-Olivier Méhu
Soutien technique & logistique : Manuel Goepfert

Contact : metmap@orbifly.com




SOURCES & CREDITS :

   NOAA